Terminal Aerodrome Forecast
Issued by NWS

Home | Current Version | Previous Version | Text Only | Print | Product List | Glossary On
Versions: 1 2 3 4 5 6 7 8 9 10 11 12 13 14 15 16 17 18 19 20 21 22 23 24 25 26 27 28 29 30 31 32 33 34 35 36 37 38 39 40 41 42 43 44
000
FTUS43 KIWX 201400 AAA
TAFSBN
TAF AMD
KSBN 201400Z 2014/2112 01010KT 6SM BR VCSH SCT005 OVC013
     FM201800 01009KT P6SM VCSH SCT012 OVC020
     FM210500 32002KT P6SM SCT025
     FM210900 00000KT 4SM BR FEW120=

USA.gov is the U.S. government's official web portal to all federal, state and local government web resources and services.